Time;durP1;ratioP1;P1;durP2;ratioP2;P2;SDS_P1;SDS_P2;PMS_P1;PMS_P2;Temp;Humidity;BMP_temperature;BMP_pressure;BME280_temperature;BME280_humidity;BME280_pressure;Samples;Min_cycle;Max_cycle;Signal;HPM_P1;HPM_P2
2023/05/08 00:00:29;;;;;;;2.00;1.80;;;;;;;;;;5112752;28;20199;-88
2023/05/08 00:02:56;;;;;;;2.80;2.13;;;;;;;;;;5112662;28;20214;-88
2023/05/08 00:05:22;;;;;;;6.13;4.00;;;;;;;;;;5112939;28;20211;-89
2023/05/08 00:07:52;;;;;;;5.53;3.80;;;;;;;;;;5099323;28;20243;-89
2023/05/08 00:10:19;;;;;;;2.30;2.10;;;;;;;;;;5112456;28;20203;-88
2023/05/08 00:12:46;;;;;;;2.57;2.33;;;;;;;;;;5112567;28;20230;-88
2023/05/08 00:15:13;;;;;;;3.93;2.23;;;;;;;;;;5112378;28;20685;-88
2023/05/08 00:17:39;;;;;;;1.83;1.73;;;;;;;;;;5112289;28;20643;-88
2023/05/08 00:20:07;;;;;;;2.77;2.30;;;;;;;;;;5112298;28;20211;-88
2023/05/08 00:22:34;;;;;;;5.97;3.27;;;;;;;;;;5112493;28;20678;-91
2023/05/08 00:25:04;;;;;;;56.70;26.20;;;;;;;;;;5112334;28;20599;-88
2023/05/08 00:27:30;;;;;;;10.57;7.83;;;;;;;;;;5112876;28;20666;-88
2023/05/08 00:30:00;;;;;;;7.80;2.70;;;;;;;;;;5112130;28;20335;-88
2023/05/08 00:32:27;;;;;;;5.47;2.00;;;;;;;;;;5112480;28;20229;-88
2023/05/08 00:34:54;;;;;;;2.37;1.63;;;;;;;;;;5112194;28;20210;-88
2023/05/08 00:37:21;;;;;;;1.90;1.70;;;;;;;;;;5112172;28;20272;-88
2023/05/08 00:39:48;;;;;;;1.60;1.50;;;;;;;;;;5112238;28;20262;-88
2023/05/08 00:42:16;;;;;;;7.40;2.30;;;;;;;;;;5112437;28;20238;-88
2023/05/08 00:44:43;;;;;;;1.87;1.73;;;;;;;;;;5111821;28;20200;-88
2023/05/08 00:47:09;;;;;;;2.03;1.67;;;;;;;;;;5112330;28;20986;-88
2023/05/08 00:49:36;;;;;;;3.90;1.87;;;;;;;;;;5113274;28;20261;-88
2023/05/08 00:52:07;;;;;;;5.07;1.83;;;;;;;;;;5116090;28;20260;-88
2023/05/08 00:54:34;;;;;;;3.40;1.60;;;;;;;;;;5116249;28;20199;-88
2023/05/08 00:57:01;;;;;;;1.70;1.60;;;;;;;;;;5116485;28;20207;-88
2023/05/08 00:59:29;;;;;;;1.93;1.80;;;;;;;;;;5115732;28;20239;-88
2023/05/08 01:01:56;;;;;;;3.87;1.80;;;;;;;;;;5115557;28;20265;-88
2023/05/08 01:04:25;;;;;;;1.83;1.73;;;;;;;;;;5115481;28;20590;-88
2023/05/08 01:06:52;;;;;;;1.97;1.80;;;;;;;;;;5115876;28;20260;-88
2023/05/08 01:09:19;;;;;;;3.00;2.03;;;;;;;;;;5115365;28;20218;-89
2023/05/08 01:11:50;;;;;;;2.70;1.77;;;;;;;;;;5115659;28;20607;-89
2023/05/08 01:14:20;;;;;;;2.73;1.93;;;;;;;;;;5101875;28;20227;-88
2023/05/08 01:16:54;;;;;;;1.93;1.40;;;;;;;;;;5115368;28;20208;-88
2023/05/08 01:19:46;;;;;;;2.83;2.40;;;;;;;;;;5115496;28;20276;-88
2023/05/08 01:22:25;;;;;;;2.83;1.90;;;;;;;;;;5115375;28;20207;-88
2023/05/08 01:25:24;;;;;;;2.30;2.00;;;;;;;;;;5115418;28;20211;-88
2023/05/08 01:28:08;;;;;;;1.80;1.70;;;;;;;;;;5115551;28;20207;-88
2023/05/08 01:30:52;;;;;;;9.37;3.20;;;;;;;;;;5102789;28;20629;-88
2023/05/08 01:33:25;;;;;;;1.80;1.70;;;;;;;;;;5114999;28;20223;-88
2023/05/08 01:35:57;;;;;;;1.93;1.83;;;;;;;;;;5115062;28;20199;-88
2023/05/08 01:38:30;;;;;;;2.30;1.93;;;;;;;;;;5114839;28;20223;-88
2023/05/08 01:41:08;;;;;;;2.93;2.00;;;;;;;;;;5114993;28;20634;-88
2023/05/08 01:43:41;;;;;;;1.57;1.47;;;;;;;;;;5115188;28;20275;-88
2023/05/08 01:46:13;;;;;;;3.57;1.80;;;;;;;;;;5114601;28;20272;-88
2023/05/08 01:48:44;;;;;;;2.00;1.90;;;;;;;;;;5114587;28;20203;-88
2023/05/08 01:51:19;;;;;;;1.93;1.83;;;;;;;;;;5114698;28;20229;-88
2023/05/08 01:53:51;;;;;;;3.37;1.83;;;;;;;;;;5114406;28;20283;-88
2023/05/08 01:56:21;;;;;;;2.10;1.90;;;;;;;;;;5114784;28;20203;-88
2023/05/08 01:58:49;;;;;;;2.10;1.60;;;;;;;;;;5114597;28;20731;-88
2023/05/08 02:01:19;;;;;;;3.60;2.30;;;;;;;;;;5113735;28;20200;-88
2023/05/08 02:03:47;;;;;;;5.57;2.27;;;;;;;;;;5114724;28;20218;-87
2023/05/08 02:06:16;;;;;;;2.10;1.63;;;;;;;;;;5101041;28;20208;-88
2023/05/08 02:08:43;;;;;;;1.80;1.60;;;;;;;;;;5114413;28;20199;-88
2023/05/08 02:11:12;;;;;;;2.33;2.10;;;;;;;;;;5114617;28;20208;-88
2023/05/08 02:13:39;;;;;;;1.90;1.77;;;;;;;;;;5114214;28;20227;-88
2023/05/08 02:16:08;;;;;;;2.30;2.10;;;;;;;;;;5114156;28;20200;-91
2023/05/08 02:18:36;;;;;;;3.03;2.07;;;;;;;;;;5114053;28;20222;-88
2023/05/08 02:21:04;;;;;;;3.80;1.90;;;;;;;;;;5114066;28;20200;-88
2023/05/08 02:23:33;;;;;;;2.63;2.00;;;;;;;;;;5114181;28;20614;-87
2023/05/08 02:26:00;;;;;;;3.20;2.30;;;;;;;;;;5113960;28;20667;-87
2023/05/08 02:28:28;;;;;;;2.87;1.80;;;;;;;;;;5114254;28;20673;-88
2023/05/08 02:30:56;;;;;;;2.30;1.80;;;;;;;;;;5114306;28;20711;-88
2023/05/08 02:33:24;;;;;;;5.87;2.40;;;;;;;;;;5113725;28;20230;-88
2023/05/08 02:35:52;;;;;;;1.93;1.83;;;;;;;;;;5114050;28;20300;-88
2023/05/08 02:38:21;;;;;;;2.57;1.70;;;;;;;;;;5113346;28;20239;-88
2023/05/08 02:40:53;;;;;;;2.47;2.27;;;;;;;;;;5113455;28;20674;-87
2023/05/08 02:43:20;;;;;;;2.17;2.00;;;;;;;;;;5113788;28;20209;-88
2023/05/08 02:45:49;;;;;;;2.90;1.80;;;;;;;;;;5113661;28;20207;-88
2023/05/08 02:48:23;;;;;;;2.50;2.30;;;;;;;;;;5113766;28;20258;-87
2023/05/08 02:50:56;;;;;;;2.47;2.03;;;;;;;;;;5113375;28;20212;-88
2023/05/08 02:53:26;;;;;;;2.23;1.80;;;;;;;;;;5113115;28;20233;-88
2023/05/08 02:55:59;;;;;;;4.13;1.53;;;;;;;;;;5113075;28;20211;-87
2023/05/08 02:58:35;;;;;;;3.17;2.07;;;;;;;;;;5113389;28;20242;-87
2023/05/08 03:01:06;;;;;;;2.30;2.10;;;;;;;;;;5113082;28;20274;-88
2023/05/08 03:03:38;;;;;;;2.07;1.83;;;;;;;;;;5113378;28;20214;-87
2023/05/08 03:06:08;;;;;;;3.93;1.80;;;;;;;;;;5113452;28;20199;-87
2023/05/08 03:08:37;;;;;;;6.10;2.23;;;;;;;;;;5113707;28;20227;-86
2023/05/08 03:11:08;;;;;;;2.90;2.20;;;;;;;;;;5100036;28;20203;-87
2023/05/08 03:13:36;;;;;;;2.40;1.67;;;;;;;;;;5112301;28;20242;-88
2023/05/08 03:16:05;;;;;;;4.47;2.00;;;;;;;;;;5113529;28;20204;-87
2023/05/08 03:18:35;;;;;;;2.10;2.00;;;;;;;;;;5112806;28;20682;-88
2023/05/08 03:21:02;;;;;;;2.50;1.80;;;;;;;;;;5112670;28;20252;-87
2023/05/08 03:23:29;;;;;;;5.60;2.20;;;;;;;;;;5112532;28;20210;-88
2023/05/08 03:25:59;;;;;;;3.00;2.70;;;;;;;;;;5112810;28;20207;-88
2023/05/08 03:28:26;;;;;;;5.33;4.83;;;;;;;;;;5112787;28;20204;-87
2023/05/08 03:30:53;;;;;;;6.10;3.53;;;;;;;;;;5113060;28;20207;-88
2023/05/08 03:33:21;;;;;;;6.53;4.53;;;;;;;;;;5112552;28;20235;-88
2023/05/08 03:35:49;;;;;;;4.93;3.73;;;;;;;;;;5112833;28;20211;-88
2023/05/08 03:38:16;;;;;;;2.83;2.63;;;;;;;;;;5112374;28;20646;-87
2023/05/08 03:40:43;;;;;;;4.23;3.47;;;;;;;;;;5112529;28;20207;-88
2023/05/08 03:43:11;;;;;;;4.63;3.67;;;;;;;;;;5112787;28;20210;-88
2023/05/08 03:45:40;;;;;;;4.53;3.37;;;;;;;;;;5112210;28;20207;-90
2023/05/08 03:48:08;;;;;;;3.63;2.70;;;;;;;;;;5112053;28;20689;-87
2023/05/08 03:50:36;;;;;;;2.27;2.10;;;;;;;;;;5112252;28;20613;-86
2023/05/08 03:53:03;;;;;;;3.57;2.20;;;;;;;;;;5112000;28;20200;-86
2023/05/08 03:55:30;;;;;;;2.50;2.30;;;;;;;;;;5112513;28;20218;-87
2023/05/08 03:58:01;;;;;;;2.40;2.20;;;;;;;;;;5112005;28;20203;-87
2023/05/08 04:00:41;;;;;;;2.83;2.63;;;;;;;;;;5112362;28;20272;-87
2023/05/08 04:03:27;;;;;;;2.60;2.40;;;;;;;;;;5099949;28;20207;-86
2023/05/08 04:06:00;;;;;;;5.40;3.03;;;;;;;;;;5111950;28;20212;-87
2023/05/08 04:08:29;;;;;;;3.73;3.33;;;;;;;;;;5111334;28;20688;-87
2023/05/08 04:11:04;;;;;;;2.80;2.53;;;;;;;;;;5111899;28;20215;-88
2023/05/08 04:13:32;;;;;;;10.00;4.20;;;;;;;;;;5099581;28;20777;-88
2023/05/08 04:16:05;;;;;;;6.07;5.47;;;;;;;;;;5111999;28;20204;-87
2023/05/08 04:18:35;;;;;;;4.23;3.83;;;;;;;;;;5111413;28;20636;-87
2023/05/08 04:21:04;;;;;;;5.90;3.43;;;;;;;;;;5093682;28;20207;-87
2023/05/08 04:23:31;;;;;;;3.43;3.13;;;;;;;;;;5076605;28;20710;-87
2023/05/08 04:26:00;;;;;;;3.17;2.80;;;;;;;;;;5115738;28;20215;-87
2023/05/08 04:28:27;;;;;;;3.60;2.27;;;;;;;;;;5114377;28;20268;-87
2023/05/08 04:30:54;;;;;;;2.80;2.40;;;;;;;;;;5108088;28;20248;-88
2023/05/08 04:33:22;;;;;;;3.57;2.27;;;;;;;;;;5114687;28;20977;-87
2023/05/08 04:35:50;;;;;;;4.73;2.53;;;;;;;;;;5115408;28;20203;-87
2023/05/08 04:38:17;;;;;;;5.70;2.93;;;;;;;;;;5097066;28;20250;-87
2023/05/08 04:40:44;;;;;;;2.70;2.50;;;;;;;;;;5115289;28;20203;-87
2023/05/08 04:43:11;;;;;;;7.67;4.37;;;;;;;;;;5113173;28;20262;-87
2023/05/08 04:45:38;;;;;;;5.60;5.00;;;;;;;;;;5115528;28;20293;-87
2023/05/08 04:48:07;;;;;;;8.03;6.30;;;;;;;;;;5099250;28;20208;-87
2023/05/08 04:50:36;;;;;;;7.53;5.77;;;;;;;;;;5115184;28;20256;-87
2023/05/08 04:53:03;;;;;;;7.10;6.27;;;;;;;;;;5100118;28;20210;-87
2023/05/08 04:55:30;;;;;;;7.43;6.70;;;;;;;;;;5113487;28;20203;-87
2023/05/08 04:57:57;;;;;;;6.53;5.40;;;;;;;;;;5097431;28;20215;-87
2023/05/08 05:00:24;;;;;;;6.97;5.80;;;;;;;;;;5114525;28;20218;-87
2023/05/08 05:02:52;;;;;;;4.70;4.20;;;;;;;;;;5114752;28;20200;-88
2023/05/08 05:05:19;;;;;;;7.73;6.13;;;;;;;;;;5115216;28;20598;-87
2023/05/08 05:07:48;;;;;;;12.23;8.03;;;;;;;;;;5096342;28;20207;-87
2023/05/08 05:10:15;;;;;;;9.63;7.03;;;;;;;;;;5096869;28;20268;-87
2023/05/08 05:12:42;;;;;;;10.33;6.40;;;;;;;;;;5083335;28;20236;-90
2023/05/08 05:15:11;;;;;;;9.83;5.43;;;;;;;;;;5096641;28;20235;-87
2023/05/08 05:17:38;;;;;;;4.37;3.97;;;;;;;;;;5114130;28;20768;-87
2023/05/08 05:20:07;;;;;;;4.60;4.10;;;;;;;;;;5096056;28;20218;-87
2023/05/08 05:22:34;;;;;;;4.13;3.27;;;;;;;;;;5114305;28;20274;-87
2023/05/08 05:25:03;;;;;;;2.53;2.33;;;;;;;;;;5112450;28;20207;-87
2023/05/08 05:27:30;;;;;;;3.07;2.57;;;;;;;;;;5095858;28;20208;-87
2023/05/08 05:29:57;;;;;;;4.53;2.47;;;;;;;;;;5096542;28;20195;-87
2023/05/08 05:32:24;;;;;;;2.67;2.47;;;;;;;;;;5114288;28;20207;-87
2023/05/08 05:34:53;;;;;;;4.27;3.27;;;;;;;;;;5091727;28;20227;-85
2023/05/08 05:37:22;;;;;;;2.97;2.77;;;;;;;;;;5113014;28;20301;-87
2023/05/08 05:39:48;;;;;;;3.37;2.40;;;;;;;;;;5098514;28;20231;-87
2023/05/08 05:42:17;;;;;;;3.57;2.30;;;;;;;;;;5113868;28;20219;-87
2023/05/08 05:44:44;;;;;;;2.20;1.80;;;;;;;;;;5114147;28;20256;-88
2023/05/08 05:47:11;;;;;;;1.97;1.77;;;;;;;;;;5104994;28;20229;-87
2023/05/08 05:49:38;;;;;;;3.00;1.80;;;;;;;;;;5096126;28;20286;-86
2023/05/08 05:52:05;;;;;;;3.43;2.17;;;;;;;;;;5112485;28;20215;-87
2023/05/08 05:54:32;;;;;;;3.97;2.07;;;;;;;;;;5112576;28;20223;-87
2023/05/08 05:56:59;;;;;;;1.37;1.30;;;;;;;;;;5084762;28;20269;-86
2023/05/08 05:59:29;;;;;;;2.17;1.37;;;;;;;;;;5106981;28;20286;-87
2023/05/08 06:01:56;;;;;;;3.03;1.80;;;;;;;;;;5113671;28;20200;-87
2023/05/08 06:04:23;;;;;;;5.47;1.53;;;;;;;;;;5113681;28;20677;-87
2023/05/08 06:06:50;;;;;;;2.00;1.87;;;;;;;;;;5094762;28;20211;-86
2023/05/08 06:09:17;;;;;;;3.93;1.57;;;;;;;;;;5096069;28;20211;-86
2023/05/08 06:11:44;;;;;;;2.40;1.70;;;;;;;;;;5104458;28;20239;-87
2023/05/08 06:14:11;;;;;;;6.50;2.07;;;;;;;;;;5095814;28;20227;-87
2023/05/08 06:16:43;;;;;;;2.53;2.10;;;;;;;;;;5094693;28;20658;-88
2023/05/08 06:19:10;;;;;;;1.83;1.70;;;;;;;;;;5113282;28;20212;-90
2023/05/08 06:21:38;;;;;;;4.73;2.10;;;;;;;;;;5095108;28;20211;-88
2023/05/08 06:24:06;;;;;;;1.70;1.60;;;;;;;;;;5113640;28;20198;-89
2023/05/08 06:26:33;;;;;;;2.90;2.73;;;;;;;;;;5106658;28;20211;-87
2023/05/08 06:29:00;;;;;;;3.77;1.70;;;;;;;;;;5095405;28;20658;-87
2023/05/08 06:31:27;;;;;;;2.20;2.00;;;;;;;;;;5112641;28;20244;-88
2023/05/08 06:33:56;;;;;;;2.00;1.60;;;;;;;;;;5112919;28;20231;-87
2023/05/08 06:36:23;;;;;;;2.30;2.10;;;;;;;;;;5107171;28;20261;-88
2023/05/08 06:38:50;;;;;;;7.27;2.23;;;;;;;;;;5113430;28;20238;-88
2023/05/08 06:41:17;;;;;;;3.60;1.97;;;;;;;;;;5090784;28;20212;-88
2023/05/08 06:43:47;;;;;;;1.90;1.80;;;;;;;;;;5112842;28;20203;-87
2023/05/08 06:46:14;;;;;;;3.03;1.90;;;;;;;;;;5113680;28;20573;-87
2023/05/08 06:48:41;;;;;;;6.63;2.30;;;;;;;;;;5104558;28;20207;-87
2023/05/08 06:51:09;;;;;;;2.13;1.93;;;;;;;;;;5107333;28;20211;-87
2023/05/08 06:53:36;;;;;;;2.00;1.80;;;;;;;;;;5101648;28;20216;-86
2023/05/08 06:56:03;;;;;;;3.43;1.90;;;;;;;;;;5097897;28;20280;-87
2023/05/08 06:58:31;;;;;;;4.03;1.70;;;;;;;;;;5113363;28;20218;-87
2023/05/08 07:01:02;;;;;;;5.57;1.90;;;;;;;;;;5112984;28;20294;-87
2023/05/08 07:03:29;;;;;;;3.77;2.03;;;;;;;;;;5113421;28;20308;-87
2023/05/08 07:05:56;;;;;;;4.03;1.93;;;;;;;;;;5113122;28;20214;-87
2023/05/08 07:08:24;;;;;;;2.50;2.27;;;;;;;;;;5112950;28;20572;-88
2023/05/08 07:10:52;;;;;;;5.50;2.37;;;;;;;;;;5113048;28;20273;-87
2023/05/08 07:13:22;;;;;;;4.67;2.23;;;;;;;;;;5113350;28;20214;-87
2023/05/08 07:15:51;;;;;;;3.17;2.23;;;;;;;;;;5112907;28;20549;-87
2023/05/08 07:18:18;;;;;;;4.07;2.33;;;;;;;;;;5113215;28;20220;-88
2023/05/08 07:20:45;;;;;;;6.53;2.67;;;;;;;;;;5112891;28;20252;-87
2023/05/08 07:23:11;;;;;;;5.67;2.63;;;;;;;;;;5112880;28;20232;-88
2023/05/08 07:25:42;;;;;;;3.17;2.47;;;;;;;;;;5112760;28;20277;-87
2023/05/08 07:28:09;;;;;;;7.97;2.60;;;;;;;;;;5112480;28;20681;-87
2023/05/08 07:30:36;;;;;;;4.20;2.43;;;;;;;;;;5112857;28;20219;-91
2023/05/08 07:33:03;;;;;;;2.80;2.27;;;;;;;;;;5112846;28;20198;-86
2023/05/08 07:35:30;;;;;;;2.80;2.60;;;;;;;;;;5111846;28;20227;-85
2023/05/08 07:37:57;;;;;;;12.23;5.20;;;;;;;;;;5112007;28;20225;-86
2023/05/08 07:40:24;;;;;;;11.67;3.47;;;;;;;;;;5111898;28;20207;-87
2023/05/08 07:42:52;;;;;;;10.57;3.53;;;;;;;;;;5112259;28;20218;-85
2023/05/08 07:45:19;;;;;;;8.50;2.90;;;;;;;;;;5111930;28;20225;-86
2023/05/08 07:47:49;;;;;;;4.93;2.90;;;;;;;;;;5111950;28;20264;-85
2023/05/08 07:50:19;;;;;;;2.63;2.43;;;;;;;;;;5111850;28;20206;-86
2023/05/08 07:52:46;;;;;;;4.00;1.93;;;;;;;;;;5112185;28;20565;-86
2023/05/08 07:55:13;;;;;;;3.43;2.30;;;;;;;;;;5111850;28;20231;-86
2023/05/08 07:57:41;;;;;;;4.20;2.77;;;;;;;;;;5111554;28;20688;-86
2023/05/08 08:00:11;;;;;;;2.60;2.40;;;;;;;;;;5111775;28;20230;-87
2023/05/08 08:02:38;;;;;;;3.40;2.00;;;;;;;;;;5111614;28;20275;-87
2023/05/08 08:05:05;;;;;;;5.90;2.23;;;;;;;;;;5111954;28;20208;-86
2023/05/08 08:07:33;;;;;;;2.70;2.40;;;;;;;;;;5112438;28;20203;-86
2023/05/08 08:10:02;;;;;;;4.40;2.53;;;;;;;;;;5111889;28;20211;-86
2023/05/08 08:12:29;;;;;;;2.00;1.90;;;;;;;;;;5111683;28;20209;-86
2023/05/08 08:14:56;;;;;;;6.43;2.63;;;;;;;;;;5112181;28;20223;-86
2023/05/08 08:17:24;;;;;;;6.00;4.03;;;;;;;;;;5111280;28;20260;-87
2023/05/08 08:19:52;;;;;;;5.30;2.27;;;;;;;;;;5111531;28;20209;-86
2023/05/08 08:22:19;;;;;;;5.17;2.37;;;;;;;;;;5111550;28;20264;-86
2023/05/08 08:24:46;;;;;;;4.97;2.93;;;;;;;;;;5111239;28;20591;-86
2023/05/08 08:27:13;;;;;;;4.60;2.40;;;;;;;;;;5111632;28;20207;-86
2023/05/08 08:29:40;;;;;;;6.67;2.10;;;;;;;;;;5111288;28;20211;-86
2023/05/08 08:32:07;;;;;;;2.53;1.97;;;;;;;;;;5111671;28;20191;-86
2023/05/08 08:34:35;;;;;;;4.77;2.33;;;;;;;;;;5111554;28;20229;-86
2023/05/08 08:37:02;;;;;;;3.97;2.20;;;;;;;;;;5098095;28;20542;-86
2023/05/08 08:39:34;;;;;;;2.50;2.30;;;;;;;;;;5111762;28;20223;-86
2023/05/08 08:42:01;;;;;;;1.93;1.83;;;;;;;;;;5111283;28;20211;-86
2023/05/08 08:44:28;;;;;;;2.20;2.07;;;;;;;;;;5111099;28;20199;-86
2023/05/08 08:46:55;;;;;;;4.30;2.50;;;;;;;;;;5111583;28;20199;-87
2023/05/08 08:49:25;;;;;;;7.00;2.40;;;;;;;;;;5109695;28;20195;-85
2023/05/08 08:51:58;;;;;;;6.30;2.43;;;;;;;;;;5093661;28;20282;-86
2023/05/08 08:54:29;;;;;;;4.53;1.83;;;;;;;;;;5111451;28;20290;-86
2023/05/08 08:56:56;;;;;;;2.17;1.80;;;;;;;;;;5111613;28;20203;-87
2023/05/08 08:59:24;;;;;;;2.70;1.97;;;;;;;;;;5111529;28;20214;-87
2023/05/08 09:01:55;;;;;;;3.10;2.80;;;;;;;;;;5111309;28;20264;-87
2023/05/08 09:04:26;;;;;;;2.63;2.30;;;;;;;;;;5111701;28;20361;-87
2023/05/08 09:06:54;;;;;;;2.87;1.80;;;;;;;;;;5112908;28;20654;-87
2023/05/08 09:09:21;;;;;;;3.47;1.90;;;;;;;;;;5111282;28;20287;-87
2023/05/08 09:11:48;;;;;;;6.47;3.00;;;;;;;;;;5114436;28;20663;-87
2023/05/08 09:14:15;;;;;;;3.87;2.13;;;;;;;;;;5114538;28;20267;-87
2023/05/08 09:16:41;;;;;;;7.30;4.80;;;;;;;;;;5114569;28;20315;-87
2023/05/08 09:19:11;;;;;;;3.90;2.93;;;;;;;;;;5114902;28;20692;-87
2023/05/08 09:21:38;;;;;;;4.90;3.07;;;;;;;;;;5114561;28;20241;-86
2023/05/08 09:24:06;;;;;;;5.27;2.40;;;;;;;;;;5114504;28;20670;-87
2023/05/08 09:26:34;;;;;;;3.63;2.40;;;;;;;;;;5114359;28;20207;-87
2023/05/08 09:29:11;;;;;;;7.60;4.57;;;;;;;;;;5114333;28;21200;-86
2023/05/08 09:31:39;;;;;;;7.90;4.03;;;;;;;;;;5114525;28;20198;-86
2023/05/08 09:34:06;;;;;;;5.77;3.37;;;;;;;;;;5114599;28;20262;-85
2023/05/08 09:36:33;;;;;;;4.83;2.00;;;;;;;;;;5114118;28;20231;-87
2023/05/08 09:39:01;;;;;;;2.83;2.20;;;;;;;;;;5114380;28;20234;-87
2023/05/08 09:41:29;;;;;;;5.10;3.47;;;;;;;;;;5114089;28;20222;-87
2023/05/08 09:44:03;;;;;;;3.87;2.97;;;;;;;;;;5114565;28;20207;-86
2023/05/08 09:46:30;;;;;;;13.70;6.43;;;;;;;;;;5114245;28;20218;-86
2023/05/08 09:48:58;;;;;;;3.90;2.97;;;;;;;;;;5114179;28;20202;-87
2023/05/08 09:51:26;;;;;;;6.60;3.70;;;;;;;;;;5114338;28;20203;-87
2023/05/08 09:53:53;;;;;;;4.63;3.20;;;;;;;;;;5114306;28;20574;-87
2023/05/08 09:56:35;;;;;;;3.83;2.23;;;;;;;;;;5113487;28;20231;-85
2023/05/08 09:59:03;;;;;;;2.23;1.90;;;;;;;;;;5113131;28;20207;-86
2023/05/08 10:01:32;;;;;;;6.43;2.30;;;;;;;;;;5113504;28;20199;-86
2023/05/08 10:04:00;;;;;;;1.97;1.77;;;;;;;;;;5113269;28;20203;-85
2023/05/08 10:06:28;;;;;;;2.70;1.80;;;;;;;;;;5113451;28;20248;-86
2023/05/08 10:09:11;;;;;;;2.73;2.03;;;;;;;;;;5113159;28;20756;-86
2023/05/08 10:11:40;;;;;;;3.70;3.23;;;;;;;;;;5113479;28;20203;-86
2023/05/08 10:14:07;;;;;;;11.60;7.50;;;;;;;;;;5113549;28;20689;-86
2023/05/08 10:16:39;;;;;;;5.70;4.00;;;;;;;;;;5113637;28;20284;-86
2023/05/08 10:19:11;;;;;;;3.10;2.03;;;;;;;;;;5113697;28;20196;-85
2023/05/08 10:21:46;;;;;;;4.23;2.07;;;;;;;;;;5112943;28;20631;-86
2023/05/08 10:24:16;;;;;;;7.00;2.53;;;;;;;;;;5113403;28;20190;-84
2023/05/08 10:26:51;;;;;;;2.60;2.27;;;;;;;;;;5113473;28;20249;-86
2023/05/08 10:29:19;;;;;;;3.03;1.90;;;;;;;;;;5113057;28;20306;-86
2023/05/08 10:31:46;;;;;;;2.17;1.97;;;;;;;;;;5113050;28;20191;-86
2023/05/08 10:34:18;;;;;;;4.37;2.40;;;;;;;;;;5112964;28;20272;-86
2023/05/08 10:36:46;;;;;;;5.33;3.07;;;;;;;;;;5112847;28;20230;-86
2023/05/08 10:39:13;;;;;;;2.63;2.20;;;;;;;;;;5112952;28;20278;-85
2023/05/08 10:41:41;;;;;;;6.47;2.40;;;;;;;;;;5112362;28;20294;-86
2023/05/08 10:44:11;;;;;;;7.10;2.90;;;;;;;;;;5112543;28;20206;-85
2023/05/08 10:46:43;;;;;;;5.00;2.20;;;;;;;;;;5099482;28;20195;-85
2023/05/08 10:49:28;;;;;;;2.43;2.00;;;;;;;;;;5112360;28;20219;-86
2023/05/08 10:52:06;;;;;;;4.23;2.60;;;;;;;;;;5101545;28;20227;-86
2023/05/08 10:54:42;;;;;;;2.80;2.50;;;;;;;;;;5111913;28;20644;-85
2023/05/08 10:57:10;;;;;;;4.27;2.23;;;;;;;;;;5112074;28;20234;-85
2023/05/08 10:59:41;;;;;;;2.43;2.23;;;;;;;;;;5112065;28;20195;-86
2023/05/08 11:02:08;;;;;;;1.80;1.70;;;;;;;;;;5112176;28;20344;-85
2023/05/08 11:04:35;;;;;;;2.63;2.43;;;;;;;;;;5112479;28;20260;-86
2023/05/08 11:07:03;;;;;;;3.60;2.07;;;;;;;;;;5112419;28;20286;-86
2023/05/08 11:09:45;;;;;;;4.03;2.53;;;;;;;;;;5098957;28;20207;-86
2023/05/08 11:12:20;;;;;;;2.67;1.93;;;;;;;;;;5111743;28;20207;-85
2023/05/08 11:14:57;;;;;;;5.50;2.73;;;;;;;;;;5111746;28;20199;-85
2023/05/08 11:17:25;;;;;;;5.13;3.03;;;;;;;;;;5111923;28;20223;-85
2023/05/08 11:19:57;;;;;;;4.50;2.50;;;;;;;;;;5112044;28;20735;-85
2023/05/08 11:22:28;;;;;;;3.90;2.13;;;;;;;;;;5111937;28;20286;-84
2023/05/08 11:24:59;;;;;;;2.30;2.10;;;;;;;;;;5111726;28;20196;-85
2023/05/08 11:27:34;;;;;;;3.00;1.93;;;;;;;;;;5099314;28;20210;-85
2023/05/08 11:30:23;;;;;;;3.70;2.30;;;;;;;;;;5111986;28;20279;-85
2023/05/08 11:32:58;;;;;;;4.00;2.50;;;;;;;;;;5110941;28;20191;-84
2023/05/08 11:35:55;;;;;;;3.00;2.80;;;;;;;;;;5111525;28;20286;-85
2023/05/08 11:38:27;;;;;;;4.80;2.57;;;;;;;;;;5111360;28;20310;-84
2023/05/08 11:41:02;;;;;;;4.00;1.93;;;;;;;;;;5111525;28;20677;-85
2023/05/08 11:44:19;;;;;;;2.10;1.90;;;;;;;;;;5111803;28;20206;-85
2023/05/08 11:46:52;;;;;;;3.07;2.53;;;;;;;;;;5111360;28;20206;-85
2023/05/08 11:49:20;;;;;;;5.60;2.50;;;;;;;;;;5111837;28;20224;-84
2023/05/08 11:51:49;;;;;;;5.23;2.30;;;;;;;;;;5111450;28;20321;-84
2023/05/08 11:54:17;;;;;;;2.17;1.93;;;;;;;;;;5111767;28;20278;-85
2023/05/08 11:56:46;;;;;;;3.07;2.43;;;;;;;;;;5111183;28;20235;-84
2023/05/08 11:59:12;;;;;;;3.97;2.67;;;;;;;;;;5111112;28;20215;-84
2023/05/08 12:01:39;;;;;;;3.10;2.43;;;;;;;;;;5111549;28;20199;-85
2023/05/08 12:04:08;;;;;;;2.40;2.20;;;;;;;;;;5111540;28;20202;-85
2023/05/08 12:06:37;;;;;;;2.57;2.37;;;;;;;;;;5111018;28;20208;-84
2023/05/08 12:09:10;;;;;;;6.90;2.40;;;;;;;;;;5110391;28;20298;-84
2023/05/08 12:11:38;;;;;;;2.87;2.13;;;;;;;;;;5111561;28;20207;-85
2023/05/08 12:14:04;;;;;;;4.43;4.03;;;;;;;;;;5111184;28;21457;-84
2023/05/08 12:16:35;;;;;;;5.97;2.50;;;;;;;;;;5111512;28;20609;-85
2023/05/08 12:19:02;;;;;;;3.97;2.10;;;;;;;;;;5111328;28;20253;-85
2023/05/08 12:21:30;;;;;;;2.90;2.60;;;;;;;;;;5111087;28;20294;-84
2023/05/08 12:23:58;;;;;;;4.27;2.47;;;;;;;;;;5111072;28;20192;-77
2023/05/08 12:26:25;;;;;;;3.50;2.53;;;;;;;;;;5111265;28;20280;-84
2023/05/08 12:28:55;;;;;;;6.57;4.50;;;;;;;;;;5110795;28;20566;-85
2023/05/08 12:31:23;;;;;;;3.53;3.03;;;;;;;;;;5110307;28;20258;-83
2023/05/08 12:33:49;;;;;;;5.50;3.43;;;;;;;;;;5110629;28;20314;-83
2023/05/08 12:36:16;;;;;;;3.80;2.87;;;;;;;;;;5110908;28;20223;-82
2023/05/08 12:38:44;;;;;;;5.27;4.30;;;;;;;;;;5110777;28;20239;-81
2023/05/08 12:41:11;;;;;;;6.27;4.20;;;;;;;;;;5111062;28;20211;-82
2023/05/08 12:43:40;;;;;;;4.17;3.83;;;;;;;;;;5110669;28;20605;-82
2023/05/08 12:46:11;;;;;;;6.03;4.20;;;;;;;;;;5113993;28;20290;-82
2023/05/08 12:48:38;;;;;;;14.23;7.07;;;;;;;;;;5114772;28;20200;-82
2023/05/08 12:51:06;;;;;;;9.93;6.83;;;;;;;;;;5114033;28;20203;-82
2023/05/08 12:53:33;;;;;;;12.57;7.17;;;;;;;;;;5114643;27;20215;-82
2023/05/08 12:56:03;;;;;;;9.23;6.77;;;;;;;;;;5115008;28;20646;-81
2023/05/08 12:58:31;;;;;;;9.93;4.70;;;;;;;;;;5113934;28;20252;-82
2023/05/08 13:01:06;;;;;;;13.27;7.13;;;;;;;;;;5114279;28;20239;-81
2023/05/08 13:03:32;;;;;;;17.17;10.23;;;;;;;;;;5114171;28;20222;-82
2023/05/08 13:05:59;;;;;;;6.20;5.20;;;;;;;;;;5114507;28;20239;-81
2023/05/08 13:08:30;;;;;;;6.90;3.03;;;;;;;;;;5113546;28;20649;-83
2023/05/08 13:10:56;;;;;;;11.60;9.33;;;;;;;;;;5114404;28;20218;-83
2023/05/08 13:13:26;;;;;;;7.43;4.63;;;;;;;;;;5114116;28;20256;-83
2023/05/08 13:15:53;;;;;;;6.17;5.57;;;;;;;;;;5114010;28;20639;-83
2023/05/08 13:18:22;;;;;;;9.77;3.07;;;;;;;;;;5113307;28;20199;-78
2023/05/08 13:20:49;;;;;;;3.10;2.80;;;;;;;;;;5113939;28;20584;-84
2023/05/08 13:23:16;;;;;;;2.83;2.63;;;;;;;;;;5114373;28;20199;-84
2023/05/08 13:25:43;;;;;;;2.50;2.27;;;;;;;;;;5114422;28;20634;-84
2023/05/08 13:28:10;;;;;;;3.83;2.77;;;;;;;;;;5118258;28;20207;-84
2023/05/08 13:30:41;;;;;;;6.10;3.83;;;;;;;;;;5113657;28;20347;-84
2023/05/08 13:33:09;;;;;;;3.17;2.83;;;;;;;;;;5114197;28;20199;-85
2023/05/08 13:35:36;;;;;;;3.10;2.80;;;;;;;;;;5113786;28;20211;-84
2023/05/08 13:38:04;;;;;;;3.63;3.13;;;;;;;;;;5113468;28;20231;-84
2023/05/08 13:40:31;;;;;;;4.27;3.67;;;;;;;;;;5114070;28;20731;-83
2023/05/08 13:42:58;;;;;;;6.53;3.60;;;;;;;;;;5113462;28;20762;-83
2023/05/08 13:45:25;;;;;;;3.90;3.00;;;;;;;;;;5114068;28;20782;-83
2023/05/08 13:47:54;;;;;;;10.73;3.50;;;;;;;;;;5113737;28;20203;-84
2023/05/08 13:50:21;;;;;;;7.77;4.00;;;;;;;;;;5113080;28;20206;-83
2023/05/08 13:52:48;;;;;;;5.23;4.03;;;;;;;;;;5116355;28;20192;-83
2023/05/08 13:55:15;;;;;;;5.00;3.87;;;;;;;;;;5113483;28;20227;-83
2023/05/08 13:57:42;;;;;;;6.17;3.73;;;;;;;;;;5112540;28;20222;-83
2023/05/08 14:00:10;;;;;;;3.63;3.33;;;;;;;;;;5113108;28;20291;-83
2023/05/08 14:02:37;;;;;;;5.20;3.97;;;;;;;;;;5114025;28;20256;-84
2023/05/08 14:05:07;;;;;;;3.77;3.47;;;;;;;;;;5113248;28;20704;-84
2023/05/08 14:07:34;;;;;;;7.07;4.00;;;;;;;;;;5113701;28;20207;-84
2023/05/08 14:10:02;;;;;;;169.50;108.17;;;;;;;;;;5113535;28;20223;-85
2023/05/08 14:12:29;;;;;;;131.23;77.97;;;;;;;;;;5113190;28;20211;-86
2023/05/08 14:14:56;;;;;;;53.60;37.77;;;;;;;;;;5113276;28;20215;-85
2023/05/08 14:17:22;;;;;;;20.03;16.17;;;;;;;;;;5113454;28;20229;-86
2023/05/08 14:19:50;;;;;;;12.83;8.90;;;;;;;;;;5113022;28;20211;-85
2023/05/08 14:22:18;;;;;;;11.60;7.10;;;;;;;;;;5113647;28;20220;-86
2023/05/08 14:24:45;;;;;;;22.97;20.73;;;;;;;;;;5113271;28;20256;-85
2023/05/08 14:27:12;;;;;;;13.33;12.10;;;;;;;;;;5113550;28;20223;-86
2023/05/08 14:29:40;;;;;;;7.60;6.90;;;;;;;;;;5113452;28;20199;-85
2023/05/08 14:32:10;;;;;;;8.07;5.57;;;;;;;;;;5113436;28;20207;-87
2023/05/08 14:34:37;;;;;;;5.97;5.23;;;;;;;;;;5113324;28;20238;-86
2023/05/08 14:37:04;;;;;;;6.33;5.37;;;;;;;;;;5112979;28;20226;-86
2023/05/08 14:39:32;;;;;;;7.50;6.50;;;;;;;;;;5113160;28;20234;-86
2023/05/08 14:42:01;;;;;;;6.07;4.63;;;;;;;;;;5112750;28;20670;-86
2023/05/08 14:44:28;;;;;;;4.50;4.10;;;;;;;;;;5112767;28;20767;-84
2023/05/08 14:46:56;;;;;;;6.73;5.27;;;;;;;;;;5113167;28;20291;-85
2023/05/08 14:49:23;;;;;;;14.73;11.60;;;;;;;;;;5112526;28;20211;-85
2023/05/08 14:51:52;;;;;;;9.83;8.93;;;;;;;;;;5112792;28;20207;-85